PWSweather.com
Personal Weather Stations
Station Observations
DW6827
Bills, Chadron, NE 69337

BillsChadron, NE 69337

Lat: 42.8275, Lon: -103.0094

Elevation: 3367

Station Type: Davis Vantage pro 2

http://billandcorena.com/weatherdisplay.htm

Latest ConditionsUpdated 3:50:02 PM MST Friday, Dec 14, 2018
Currently Today's Max Today's Min Today's Average
Temperature 43.5°F6.4°C 46.6°F8.1°C 28.0°F-2.2°C 35.1°F1.7°C
Dew Point 26.6°F-3.0°C 26.6°F-3.0°C 17.3°F-8.2°C 20.2°F-6.6°C
Winds 2.0 mph NE3.2 kmh NE 8.0 mph -12.9 kmh - - 5.5 mph 8.9 kmh
Wind Gusts 2.0 mph3.2 kmh 12.0 mph19.3 kmh - -
Humidity 51% 64% 41% 55%
Pressure 30.29 in1025.7 mb 30.45 in1031.2 mb 30.29 in1025.7 mb -
Hour Temp Dew Point Humidity Winds Wind Gusts Pressure Precip Precip Rate Daily Precip Total
03:50 PM 43.5°F6.4°C 26.6°F-3.0°C 51% 2.0 mph NE3.2 kmh NE 2.0 mph3.2 kmh 30.29 in1025.7 mb 0.00 in0.0 mm 0.00 in0.0 mm 0.00 in0.0 mm
03:40 PM 43.5°F6.4°C 26.6°F-3.0°C 51% 2.0 mph NE3.2 kmh NE 4.0 mph6.4 kmh 30.29 in1025.7 mb 0.00 in0.0 mm 0.00 in0.0 mm 0.00 in0.0 mm
03:30 PM 43.3°F6.3°C 25.9°F-3.4°C 50% 2.0 mph NE3.2 kmh NE 3.0 mph4.8 kmh 30.29 in1025.7 mb 0.00 in0.0 mm 0.00 in0.0 mm 0.00 in0.0 mm
03:20 PM 43.7°F6.5°C 26.3°F-3.2°C 50% 3.0 mph NE4.8 kmh NE 4.0 mph6.4 kmh 30.29 in1025.7 mb 0.00 in0.0 mm 0.00 in0.0 mm 0.00 in0.0 mm
03:10 PM 43.9°F6.6°C 26.0°F-3.3°C 49% 3.0 mph NE4.8 kmh NE 4.0 mph6.4 kmh 30.29 in1025.7 mb 0.00 in0.0 mm 0.00 in0.0 mm 0.00 in0.0 mm
03:00 PM 43.9°F6.6°C 26.0°F-3.3°C 49% 3.0 mph NNE4.8 kmh NNE 6.0 mph9.7 kmh 30.30 in1026.1 mb 0.00 in0.0 mm 0.00 in0.0 mm 0.00 in0.0 mm
02:50 PM 44.3°F6.8°C 25.8°F-3.4°C 48% 3.0 mph N4.8 kmh N 5.0 mph8.0 kmh 30.30 in1026.1 mb 0.00 in0.0 mm 0.00 in0.0 mm 0.00 in0.0 mm
02:40 PM 44.9°F7.2°C 26.4°F-3.1°C 48% 2.0 mph N3.2 kmh N 5.0 mph8.0 kmh 30.31 in1026.4 mb 0.00 in0.0 mm 0.00 in0.0 mm 0.00 in0.0 mm
02:30 PM 45.3°F7.4°C 24.6°F-4.1°C 44% 3.0 mph N4.8 kmh N 4.0 mph6.4 kmh 30.31 in1026.4 mb 0.00 in0.0 mm 0.00 in0.0 mm 0.00 in0.0 mm
02:20 PM 46.3°F7.9°C 25.6°F-3.6°C 44% 1.0 mph NNW1.6 kmh NNW 4.0 mph6.4 kmh 30.31 in1026.4 mb 0.00 in0.0 mm 0.00 in0.0 mm 0.00 in0.0 mm
02:10 PM 46.2°F7.9°C 26.0°F-3.3°C 45% 1.0 mph 1.6 kmh -- 30.31 in1026.4 mb 0.00 in0.0 mm 0.00 in0.0 mm 0.00 in0.0 mm
02:00 PM 46.0°F7.8°C 24.2°F-4.3°C 42% 1.0 mph W1.6 kmh W 3.0 mph4.8 kmh 30.31 in1026.4 mb 0.00 in0.0 mm 0.00 in0.0 mm 0.00 in0.0 mm
01:50 PM 46.6°F8.1°C 24.7°F-4.1°C 42% 1.0 mph W1.6 kmh W 3.0 mph4.8 kmh 30.32 in1026.8 mb 0.00 in0.0 mm 0.00 in0.0 mm 0.00 in0.0 mm
01:40 PM 46.3°F7.9°C 23.9°F-4.5°C 41% Calm Calm 2.0 mph3.2 kmh 30.31 in1026.4 mb 0.00 in0.0 mm 0.00 in0.0 mm 0.00 in0.0 mm
01:30 PM 45.4°F7.4°C 23.0°F-5.0°C 41% 1.0 mph S1.6 kmh S 1.0 mph1.6 kmh 30.32 in1026.8 mb 0.00 in0.0 mm 0.00 in0.0 mm 0.00 in0.0 mm
01:20 PM 44.8°F7.1°C 23.1°F-4.9°C 42% Calm Calm 1.0 mph1.6 kmh 30.32 in1026.8 mb 0.00 in0.0 mm 0.00 in0.0 mm 0.00 in0.0 mm
01:10 PM 44.5°F6.9°C 22.8°F-5.1°C 42% 1.0 mph S1.6 kmh S 2.0 mph3.2 kmh 30.33 in1027.1 mb 0.00 in0.0 mm 0.00 in0.0 mm 0.00 in0.0 mm
01:00 PM 43.8°F6.6°C 22.7°F-5.2°C 43% 1.0 mph S1.6 kmh S 3.0 mph4.8 kmh 30.34 in1027.4 mb 0.00 in0.0 mm 0.00 in0.0 mm 0.00 in0.0 mm
12:50 PM 43.1°F6.2°C 22.6°F-5.2°C 44% 2.0 mph S3.2 kmh S 4.0 mph6.4 kmh 30.34 in1027.4 mb 0.00 in0.0 mm 0.00 in0.0 mm 0.00 in0.0 mm
12:40 PM 42.3°F5.7°C 21.9°F-5.6°C 44% 2.0 mph S3.2 kmh S 2.0 mph3.2 kmh 30.34 in1027.4 mb 0.00 in0.0 mm 0.00 in0.0 mm 0.00 in0.0 mm
12:30 PM 41.8°F5.4°C 22.0°F-5.6°C 45% 3.0 mph S4.8 kmh S 4.0 mph6.4 kmh 30.35 in1027.8 mb 0.00 in0.0 mm 0.00 in0.0 mm 0.00 in0.0 mm
12:20 PM 41.2°F5.1°C 23.0°F-5.0°C 48% 4.0 mph SSW6.4 kmh SSW 4.0 mph6.4 kmh 30.35 in1027.8 mb 0.00 in0.0 mm 0.00 in0.0 mm 0.00 in0.0 mm
12:10 PM 41.0°F5.0°C 23.8°F-4.6°C 50% 4.0 mph S6.4 kmh S 5.0 mph8.0 kmh 30.36 in1028.1 mb 0.00 in0.0 mm 0.00 in0.0 mm 0.00 in0.0 mm
12:00 PM 40.6°F4.8°C 22.4°F-5.3°C 48% 5.0 mph SSW8.0 kmh SSW 6.0 mph9.7 kmh 30.38 in1028.8 mb 0.00 in0.0 mm 0.00 in0.0 mm 0.00 in0.0 mm
11:50 AM 40.0°F4.4°C 21.9°F-5.6°C 48% 6.0 mph SSW9.7 kmh SSW 7.0 mph11.3 kmh 30.38 in1028.8 mb 0.00 in0.0 mm 0.00 in0.0 mm 0.00 in0.0 mm
11:40 AM 40.1°F4.5°C 22.4°F-5.3°C 49% 5.0 mph SSW8.0 kmh SSW 7.0 mph11.3 kmh 30.39 in1029.1 mb 0.00 in0.0 mm 0.00 in0.0 mm 0.00 in0.0 mm
11:30 AM 39.7°F4.3°C 22.1°F-5.5°C 49% 6.0 mph S9.7 kmh S 8.0 mph12.9 kmh 30.39 in1029.1 mb 0.00 in0.0 mm 0.00 in0.0 mm 0.00 in0.0 mm
11:20 AM 39.7°F4.3°C 21.1°F-6.1°C 47% 6.0 mph S9.7 kmh S 8.0 mph12.9 kmh 30.40 in1029.5 mb 0.00 in0.0 mm 0.00 in0.0 mm 0.00 in0.0 mm
11:10 AM 39.3°F4.1°C 21.7°F-5.7°C 49% 6.0 mph S9.7 kmh S 8.0 mph12.9 kmh 30.41 in1029.8 mb 0.00 in0.0 mm 0.00 in0.0 mm 0.00 in0.0 mm
11:00 AM 38.7°F3.7°C 21.2°F-6.0°C 49% 8.0 mph S12.9 kmh S 12.0 mph19.3 kmh 30.41 in1029.8 mb 0.00 in0.0 mm 0.00 in0.0 mm 0.00 in0.0 mm
10:50 AM 38.7°F3.7°C 21.2°F-6.0°C 49% 8.0 mph S12.9 kmh S 11.0 mph17.7 kmh 30.42 in1030.1 mb 0.00 in0.0 mm 0.00 in0.0 mm 0.00 in0.0 mm
10:40 AM 38.3°F3.5°C 21.3°F-5.9°C 50% 7.0 mph S11.3 kmh S 10.0 mph16.1 kmh 30.42 in1030.1 mb 0.00 in0.0 mm 0.00 in0.0 mm 0.00 in0.0 mm
10:30 AM 37.9°F3.3°C 20.9°F-6.2°C 50% 6.0 mph S9.7 kmh S 10.0 mph16.1 kmh 30.43 in1030.5 mb 0.00 in0.0 mm 0.00 in0.0 mm 0.00 in0.0 mm
10:20 AM 37.4°F3.0°C 20.9°F-6.2°C 51% 7.0 mph S11.3 kmh S 11.0 mph17.7 kmh 30.44 in1030.8 mb 0.00 in0.0 mm 0.00 in0.0 mm 0.00 in0.0 mm
10:10 AM 37.1°F2.8°C 20.6°F-6.3°C 51% 7.0 mph SSW11.3 kmh SSW 9.0 mph14.5 kmh 30.44 in1030.8 mb 0.00 in0.0 mm 0.00 in0.0 mm 0.00 in0.0 mm
10:00 AM 36.5°F2.5°C 21.0°F-6.1°C 53% 8.0 mph S12.9 kmh S 10.0 mph16.1 kmh 30.44 in1030.8 mb 0.00 in0.0 mm 0.00 in0.0 mm 0.00 in0.0 mm
09:50 AM 36.3°F2.4°C 20.3°F-6.5°C 52% 8.0 mph S12.9 kmh S 12.0 mph19.3 kmh 30.44 in1030.8 mb 0.00 in0.0 mm 0.00 in0.0 mm 0.00 in0.0 mm
09:40 AM 36.0°F2.2°C 20.1°F-6.6°C 52% 8.0 mph S12.9 kmh S 11.0 mph17.7 kmh 30.45 in1031.2 mb 0.00 in0.0 mm 0.00 in0.0 mm 0.00 in0.0 mm
09:30 AM 35.7°F2.1°C 20.7°F-6.3°C 54% 7.0 mph S11.3 kmh S 9.0 mph14.5 kmh 30.45 in1031.2 mb 0.00 in0.0 mm 0.00 in0.0 mm 0.00 in0.0 mm
09:20 AM 35.3°F1.8°C 19.9°F-6.7°C 53% 7.0 mph S11.3 kmh S 11.0 mph17.7 kmh 30.45 in1031.2 mb 0.00 in0.0 mm 0.00 in0.0 mm 0.00 in0.0 mm
09:10 AM 34.9°F1.6°C 19.9°F-6.7°C 54% 8.0 mph S12.9 kmh S 12.0 mph19.3 kmh 30.45 in1031.2 mb 0.00 in0.0 mm 0.00 in0.0 mm 0.00 in0.0 mm
09:00 AM 34.2°F1.2°C 20.1°F-6.6°C 56% 7.0 mph S11.3 kmh S 11.0 mph17.7 kmh 30.45 in1031.2 mb 0.00 in0.0 mm 0.00 in0.0 mm 0.00 in0.0 mm
08:50 AM 33.5°F0.8°C 20.3°F-6.5°C 58% 8.0 mph S12.9 kmh S 12.0 mph19.3 kmh 30.44 in1030.8 mb 0.00 in0.0 mm 0.00 in0.0 mm 0.00 in0.0 mm
08:40 AM 32.9°F0.5°C 20.1°F-6.6°C 59% 6.0 mph S9.7 kmh S 9.0 mph14.5 kmh 30.44 in1030.8 mb 0.00 in0.0 mm 0.00 in0.0 mm 0.00 in0.0 mm
08:30 AM 32.2°F0.1°C 19.5°F-6.9°C 59% 7.0 mph S11.3 kmh S 9.0 mph14.5 kmh 30.44 in1030.8 mb 0.00 in0.0 mm 0.00 in0.0 mm 0.00 in0.0 mm
08:20 AM 31.4°F-0.3°C 19.1°F-7.2°C 60% 7.0 mph S11.3 kmh S 10.0 mph16.1 kmh 30.44 in1030.8 mb 0.00 in0.0 mm 0.00 in0.0 mm 0.00 in0.0 mm
08:10 AM 31.0°F-0.6°C 18.7°F-7.4°C 60% 8.0 mph S12.9 kmh S 11.0 mph17.7 kmh 30.44 in1030.8 mb 0.00 in0.0 mm 0.00 in0.0 mm 0.00 in0.0 mm
08:00 AM 30.5°F-0.8°C 18.6°F-7.4°C 61% 7.0 mph S11.3 kmh S 10.0 mph16.1 kmh 30.44 in1030.8 mb 0.00 in0.0 mm 0.00 in0.0 mm 0.00 in0.0 mm
07:50 AM 30.0°F-1.1°C 18.2°F-7.7°C 61% 7.0 mph SSE11.3 kmh SSE 10.0 mph16.1 kmh 30.43 in1030.5 mb 0.00 in0.0 mm 0.00 in0.0 mm 0.00 in0.0 mm
07:40 AM 28.8°F-1.8°C 17.8°F-7.9°C 63% 6.0 mph S9.7 kmh S 8.0 mph12.9 kmh 30.44 in1030.8 mb 0.00 in0.0 mm 0.00 in0.0 mm 0.00 in0.0 mm
07:30 AM 28.8°F-1.8°C 17.8°F-7.9°C 63% 7.0 mph S11.3 kmh S 9.0 mph14.5 kmh 30.44 in1030.8 mb 0.00 in0.0 mm 0.00 in0.0 mm 0.00 in0.0 mm
07:20 AM 29.3°F-1.5°C 17.9°F-7.8°C 62% 7.0 mph S11.3 kmh S 9.0 mph14.5 kmh 30.44 in1030.8 mb 0.00 in0.0 mm 0.00 in0.0 mm 0.00 in0.0 mm
07:10 AM 28.8°F-1.8°C 17.8°F-7.9°C 63% 7.0 mph S11.3 kmh S 10.0 mph16.1 kmh 30.43 in1030.5 mb 0.00 in0.0 mm 0.00 in0.0 mm 0.00 in0.0 mm
07:00 AM 28.7°F-1.8°C 17.7°F-7.9°C 63% 7.0 mph SSE11.3 kmh SSE 11.0 mph17.7 kmh 30.43 in1030.5 mb 0.00 in0.0 mm 0.00 in0.0 mm 0.00 in0.0 mm
06:50 AM 28.6°F-1.9°C 17.6°F-8.0°C 63% 7.0 mph S11.3 kmh S 11.0 mph17.7 kmh 30.43 in1030.5 mb 0.00 in0.0 mm 0.00 in0.0 mm 0.00 in0.0 mm
06:40 AM 28.0°F-2.2°C 17.4°F-8.1°C 64% 6.0 mph SSE9.7 kmh SSE 10.0 mph16.1 kmh 30.43 in1030.5 mb 0.00 in0.0 mm 0.00 in0.0 mm 0.00 in0.0 mm
06:30 AM 28.3°F-2.1°C 17.3°F-8.2°C 63% 7.0 mph S11.3 kmh S 9.0 mph14.5 kmh 30.43 in1030.5 mb 0.00 in0.0 mm 0.00 in0.0 mm 0.00 in0.0 mm
06:20 AM 28.3°F-2.1°C 17.3°F-8.2°C 63% 7.0 mph SSE11.3 kmh SSE 9.0 mph14.5 kmh 30.43 in1030.5 mb 0.00 in0.0 mm 0.00 in0.0 mm 0.00 in0.0 mm
06:10 AM 28.7°F-1.8°C 17.3°F-8.2°C 62% 8.0 mph S12.9 kmh S 9.0 mph14.5 kmh 30.43 in1030.5 mb 0.00 in0.0 mm 0.00 in0.0 mm 0.00 in0.0 mm
06:00 AM 28.8°F-1.8°C 17.4°F-8.1°C 62% 8.0 mph S12.9 kmh S 9.0 mph14.5 kmh 30.43 in1030.5 mb 0.00 in0.0 mm 0.00 in0.0 mm 0.00 in0.0 mm
05:50 AM 29.2°F-1.6°C 17.8°F-7.9°C 62% 8.0 mph S12.9 kmh S 11.0 mph17.7 kmh 30.42 in1030.1 mb 0.00 in0.0 mm 0.00 in0.0 mm 0.00 in0.0 mm
05:40 AM 29.5°F-1.4°C 17.7°F-7.9°C 61% 8.0 mph S12.9 kmh S 10.0 mph16.1 kmh 30.42 in1030.1 mb 0.00 in0.0 mm 0.00 in0.0 mm 0.00 in0.0 mm
05:30 AM 30.9°F-0.6°C 18.2°F-7.7°C 59% 8.0 mph S12.9 kmh S 12.0 mph19.3 kmh 30.41 in1029.8 mb 0.00 in0.0 mm 0.00 in0.0 mm 0.00 in0.0 mm
05:20 AM 30.5°F-0.8°C 17.9°F-7.8°C 59% 8.0 mph S12.9 kmh S 11.0 mph17.7 kmh 30.41 in1029.8 mb 0.00 in0.0 mm 0.00 in0.0 mm 0.00 in0.0 mm
05:10 AM 30.7°F-0.7°C 18.1°F-7.7°C 59% 6.0 mph S9.7 kmh S 8.0 mph12.9 kmh 30.41 in1029.8 mb 0.00 in0.0 mm 0.00 in0.0 mm 0.00 in0.0 mm
05:00 AM 31.1°F-0.5°C 18.0°F-7.8°C 58% 5.0 mph S8.0 kmh S 10.0 mph16.1 kmh 30.41 in1029.8 mb 0.00 in0.0 mm 0.00 in0.0 mm 0.00 in0.0 mm
04:50 AM 31.5°F-0.3°C 18.4°F-7.6°C 58% 6.0 mph S9.7 kmh S 7.0 mph11.3 kmh 30.41 in1029.8 mb 0.00 in0.0 mm 0.00 in0.0 mm 0.00 in0.0 mm
04:40 AM 31.0°F-0.6°C 18.3°F-7.6°C 59% 6.0 mph S9.7 kmh S 9.0 mph14.5 kmh 30.41 in1029.8 mb 0.00 in0.0 mm 0.00 in0.0 mm 0.00 in0.0 mm
04:30 AM 31.4°F-0.3°C 18.3°F-7.6°C 58% 6.0 mph SSW9.7 kmh SSW 7.0 mph11.3 kmh 30.40 in1029.5 mb 0.00 in0.0 mm 0.00 in0.0 mm 0.00 in0.0 mm
04:20 AM 32.3°F0.2°C 18.8°F-7.3°C 57% 7.0 mph SSW11.3 kmh SSW 10.0 mph16.1 kmh 30.40 in1029.5 mb 0.00 in0.0 mm 0.00 in0.0 mm 0.00 in0.0 mm
04:10 AM 32.0°F0.0°C 18.5°F-7.5°C 57% 6.0 mph S9.7 kmh S 10.0 mph16.1 kmh 30.40 in1029.5 mb 0.00 in0.0 mm 0.00 in0.0 mm 0.00 in0.0 mm
04:00 AM 31.3°F-0.4°C 18.6°F-7.4°C 59% 7.0 mph S11.3 kmh S 8.0 mph12.9 kmh 30.40 in1029.5 mb 0.00 in0.0 mm 0.00 in0.0 mm 0.00 in0.0 mm
03:50 AM 31.5°F-0.3°C 18.4°F-7.6°C 58% 6.0 mph S9.7 kmh S 11.0 mph17.7 kmh 30.40 in1029.5 mb 0.00 in0.0 mm 0.00 in0.0 mm 0.00 in0.0 mm
03:40 AM 31.7°F-0.2°C 18.6°F-7.4°C 58% 7.0 mph S11.3 kmh S 10.0 mph16.1 kmh 30.40 in1029.5 mb 0.00 in0.0 mm 0.00 in0.0 mm 0.00 in0.0 mm
03:30 AM 31.5°F-0.3°C 18.4°F-7.6°C 58% 7.0 mph S11.3 kmh S 9.0 mph14.5 kmh 30.39 in1029.1 mb 0.00 in0.0 mm 0.00 in0.0 mm 0.00 in0.0 mm
03:20 AM 31.5°F-0.3°C 18.4°F-7.6°C 58% 7.0 mph S11.3 kmh S 10.0 mph16.1 kmh 30.39 in1029.1 mb 0.00 in0.0 mm 0.00 in0.0 mm 0.00 in0.0 mm
03:10 AM 31.0°F-0.6°C 18.7°F-7.4°C 60% 7.0 mph S11.3 kmh S 10.0 mph16.1 kmh 30.39 in1029.1 mb 0.00 in0.0 mm 0.00 in0.0 mm 0.00 in0.0 mm
03:00 AM 29.8°F-1.2°C 18.4°F-7.6°C 62% 7.0 mph S11.3 kmh S 9.0 mph14.5 kmh 30.39 in1029.1 mb 0.00 in0.0 mm 0.00 in0.0 mm 0.00 in0.0 mm
02:50 AM 29.4°F-1.4°C 18.0°F-7.8°C 62% 6.0 mph S9.7 kmh S 7.0 mph11.3 kmh 30.39 in1029.1 mb 0.00 in0.0 mm 0.00 in0.0 mm 0.00 in0.0 mm
02:40 AM 29.9°F-1.2°C 18.1°F-7.7°C 61% 7.0 mph SSE11.3 kmh SSE 9.0 mph14.5 kmh 30.39 in1029.1 mb 0.00 in0.0 mm 0.00 in0.0 mm 0.00 in0.0 mm
02:30 AM 30.1°F-1.1°C 18.3°F-7.6°C 61% 7.0 mph S11.3 kmh S 9.0 mph14.5 kmh 30.39 in1029.1 mb 0.00 in0.0 mm 0.00 in0.0 mm 0.00 in0.0 mm
02:20 AM 29.0°F-1.7°C 17.6°F-8.0°C 62% 6.0 mph S9.7 kmh S 10.0 mph16.1 kmh 30.39 in1029.1 mb 0.00 in0.0 mm 0.00 in0.0 mm 0.00 in0.0 mm
02:10 AM 29.2°F-1.6°C 17.4°F-8.1°C 61% 5.0 mph S8.0 kmh S 8.0 mph12.9 kmh 30.39 in1029.1 mb 0.00 in0.0 mm 0.00 in0.0 mm 0.00 in0.0 mm
02:00 AM 30.0°F-1.1°C 17.4°F-8.1°C 59% 5.0 mph SSE8.0 kmh SSE 7.0 mph11.3 kmh 30.39 in1029.1 mb 0.00 in0.0 mm 0.00 in0.0 mm 0.00 in0.0 mm
01:50 AM 30.3°F-0.9°C 17.7°F-7.9°C 59% 6.0 mph S9.7 kmh S 7.0 mph11.3 kmh 30.38 in1028.8 mb 0.00 in0.0 mm 0.00 in0.0 mm 0.00 in0.0 mm
01:40 AM 30.2°F-1.0°C 17.6°F-8.0°C 59% 7.0 mph S11.3 kmh S 9.0 mph14.5 kmh 30.38 in1028.8 mb 0.00 in0.0 mm 0.00 in0.0 mm 0.00 in0.0 mm
01:30 AM 30.7°F-0.7°C 18.1°F-7.7°C 59% 6.0 mph S9.7 kmh S 7.0 mph11.3 kmh 30.38 in1028.8 mb 0.00 in0.0 mm 0.00 in0.0 mm 0.00 in0.0 mm
01:20 AM 31.0°F-0.6°C 17.9°F-7.8°C 58% 6.0 mph S9.7 kmh S 8.0 mph12.9 kmh 30.37 in1028.4 mb 0.00 in0.0 mm 0.00 in0.0 mm 0.00 in0.0 mm
01:10 AM 30.2°F-1.0°C 18.0°F-7.8°C 60% 6.0 mph S9.7 kmh S 7.0 mph11.3 kmh 30.37 in1028.4 mb 0.00 in0.0 mm 0.00 in0.0 mm 0.00 in0.0 mm
01:00 AM 29.7°F-1.3°C 17.9°F-7.8°C 61% 6.0 mph S9.7 kmh S 8.0 mph12.9 kmh 30.36 in1028.1 mb 0.00 in0.0 mm 0.00 in0.0 mm 0.00 in0.0 mm
12:50 AM 29.8°F-1.2°C 17.6°F-8.0°C 60% 5.0 mph SSE8.0 kmh SSE 6.0 mph9.7 kmh 30.36 in1028.1 mb 0.00 in0.0 mm 0.00 in0.0 mm 0.00 in0.0 mm
12:40 AM 29.9°F-1.2°C 17.3°F-8.2°C 59% 5.0 mph SSE8.0 kmh SSE 6.0 mph9.7 kmh 30.36 in1028.1 mb 0.00 in0.0 mm 0.00 in0.0 mm 0.00 in0.0 mm
12:30 AM 30.2°F-1.0°C 18.0°F-7.8°C 60% 6.0 mph S9.7 kmh S 7.0 mph11.3 kmh 30.36 in1028.1 mb 0.00 in0.0 mm 0.00 in0.0 mm 0.00 in0.0 mm
12:20 AM 30.8°F-0.7°C 18.1°F-7.7°C 59% 6.0 mph S9.7 kmh S 8.0 mph12.9 kmh 30.36 in1028.1 mb 0.00 in0.0 mm 0.00 in0.0 mm 0.00 in0.0 mm
12:10 AM 30.9°F-0.6°C 18.2°F-7.7°C 59% 6.0 mph S9.7 kmh S 10.0 mph16.1 kmh 30.36 in1028.1 mb 0.00 in0.0 mm 0.00 in0.0 mm 0.00 in0.0 mm
12:00 AM 30.7°F-0.7°C 18.1°F-7.7°C 59% 5.0 mph S8.0 kmh S 7.0 mph11.3 kmh 30.37 in1028.4 mb 0.00 in0.0 mm 0.00 in0.0 mm 0.00 in0.0 mm